sensor_id;sensor_type;location;lat;lon;timestamp;temperature;humidity
20398;DHT22;10358;49.590;11.030;2022-09-25T00:00:22;13.10;99.90
20398;DHT22;10358;49.590;11.030;2022-09-25T00:02:47;13.00;99.90
20398;DHT22;10358;49.590;11.030;2022-09-25T00:05:13;13.00;99.90
20398;DHT22;10358;49.590;11.030;2022-09-25T00:07:39;13.00;99.90
20398;DHT22;10358;49.590;11.030;2022-09-25T00:10:05;12.90;99.90
20398;DHT22;10358;49.590;11.030;2022-09-25T00:12:30;12.90;99.90
20398;DHT22;10358;49.590;11.030;2022-09-25T00:14:56;12.90;99.90
20398;DHT22;10358;49.590;11.030;2022-09-25T00:17:22;12.90;99.90
20398;DHT22;10358;49.590;11.030;2022-09-25T00:19:48;12.80;99.90
20398;DHT22;10358;49.590;11.030;2022-09-25T00:22:17;12.80;99.90
20398;DHT22;10358;49.590;11.030;2022-09-25T00:24:42;12.80;99.90
20398;DHT22;10358;49.590;11.030;2022-09-25T00:27:08;12.80;99.90
20398;DHT22;10358;49.590;11.030;2022-09-25T00:29:36;12.80;99.90
20398;DHT22;10358;49.590;11.030;2022-09-25T00:32:03;12.80;99.90
20398;DHT22;10358;49.590;11.030;2022-09-25T00:34:28;12.80;99.90
20398;DHT22;10358;49.590;11.030;2022-09-25T00:36:54;12.80;99.90
20398;DHT22;10358;49.590;11.030;2022-09-25T00:39:19;12.80;99.90
20398;DHT22;10358;49.590;11.030;2022-09-25T00:41:45;12.80;99.90
20398;DHT22;10358;49.590;11.030;2022-09-25T00:47:19;12.80;99.90
20398;DHT22;10358;49.590;11.030;2022-09-25T00:49:46;12.80;99.90
20398;DHT22;10358;49.590;11.030;2022-09-25T00:52:12;12.80;99.90
20398;DHT22;10358;49.590;11.030;2022-09-25T00:57:13;12.70;99.90
20398;DHT22;10358;49.590;11.030;2022-09-25T00:59:45;12.70;99.90
20398;DHT22;10358;49.590;11.030;2022-09-25T01:02:18;12.70;99.90
20398;DHT22;10358;49.590;11.030;2022-09-25T01:04:46;12.70;99.90
20398;DHT22;10358;49.590;11.030;2022-09-25T01:07:12;12.70;99.90
20398;DHT22;10358;49.590;11.030;2022-09-25T01:09:39;12.70;99.90
20398;DHT22;10358;49.590;11.030;2022-09-25T01:12:05;12.60;99.90
20398;DHT22;10358;49.590;11.030;2022-09-25T01:14:30;12.70;99.90
20398;DHT22;10358;49.590;11.030;2022-09-25T01:31:05;12.60;99.90
20398;DHT22;10358;49.590;11.030;2022-09-25T01:33:38;12.60;99.90
20398;DHT22;10358;49.590;11.030;2022-09-25T01:36:16;12.60;99.90
20398;DHT22;10358;49.590;11.030;2022-09-25T01:38:52;12.50;99.90
20398;DHT22;10358;49.590;11.030;2022-09-25T01:41:34;12.50;99.90
20398;DHT22;10358;49.590;11.030;2022-09-25T01:44:07;12.40;99.90
20398;DHT22;10358;49.590;11.030;2022-09-25T01:46:45;12.40;99.90
20398;DHT22;10358;49.590;11.030;2022-09-25T01:49:32;12.40;99.90
20398;DHT22;10358;49.590;11.030;2022-09-25T01:52:02;12.40;99.90
20398;DHT22;10358;49.590;11.030;2022-09-25T01:54:42;12.40;99.90
20398;DHT22;10358;49.590;11.030;2022-09-25T01:57:22;12.40;99.90
20398;DHT22;10358;49.590;11.030;2022-09-25T02:00:06;12.40;99.90
20398;DHT22;10358;49.590;11.030;2022-09-25T02:02:40;12.40;99.90
20398;DHT22;10358;49.590;11.030;2022-09-25T02:05:42;12.50;99.90
20398;DHT22;10358;49.590;11.030;2022-09-25T02:08:14;12.50;99.90
20398;DHT22;10358;49.590;11.030;2022-09-25T02:10:46;12.50;99.90
20398;DHT22;10358;49.590;11.030;2022-09-25T02:13:15;12.50;99.90
20398;DHT22;10358;49.590;11.030;2022-09-25T02:15:51;12.50;99.90
20398;DHT22;10358;49.590;11.030;2022-09-25T02:18:18;12.50;99.90
20398;DHT22;10358;49.590;11.030;2022-09-25T02:21:35;12.60;99.90
20398;DHT22;10358;49.590;11.030;2022-09-25T02:26:45;12.60;99.90
20398;DHT22;10358;49.590;11.030;2022-09-25T02:29:11;12.50;99.90
20398;DHT22;10358;49.590;11.030;2022-09-25T02:31:41;12.50;99.90
20398;DHT22;10358;49.590;11.030;2022-09-25T02:34:07;12.60;99.90
20398;DHT22;10358;49.590;11.030;2022-09-25T02:36:33;12.60;99.90
20398;DHT22;10358;49.590;11.030;2022-09-25T02:39:00;12.60;99.90
20398;DHT22;10358;49.590;11.030;2022-09-25T02:41:38;12.60;99.90
20398;DHT22;10358;49.590;11.030;2022-09-25T02:44:27;12.60;99.90
20398;DHT22;10358;49.590;11.030;2022-09-25T02:47:33;12.60;99.90
20398;DHT22;10358;49.590;11.030;2022-09-25T02:52:35;12.60;99.90
20398;DHT22;10358;49.590;11.030;2022-09-25T02:55:31;12.60;99.90
20398;DHT22;10358;49.590;11.030;2022-09-25T02:58:16;12.60;99.90
20398;DHT22;10358;49.590;11.030;2022-09-25T03:00:46;12.60;99.90
20398;DHT22;10358;49.590;11.030;2022-09-25T03:03:15;12.60;99.90
20398;DHT22;10358;49.590;11.030;2022-09-25T03:05:42;12.70;99.90
20398;DHT22;10358;49.590;11.030;2022-09-25T03:08:08;12.60;99.90
20398;DHT22;10358;49.590;11.030;2022-09-25T03:10:53;12.70;99.90
20398;DHT22;10358;49.590;11.030;2022-09-25T03:13:24;12.70;99.90
20398;DHT22;10358;49.590;11.030;2022-09-25T03:16:05;12.70;99.90
20398;DHT22;10358;49.590;11.030;2022-09-25T03:18:32;12.70;99.90
20398;DHT22;10358;49.590;11.030;2022-09-25T03:20:58;12.70;99.90
20398;DHT22;10358;49.590;11.030;2022-09-25T03:23:24;12.70;99.90
20398;DHT22;10358;49.590;11.030;2022-09-25T03:25:52;12.70;99.90
20398;DHT22;10358;49.590;11.030;2022-09-25T03:28:18;12.70;99.90
20398;DHT22;10358;49.590;11.030;2022-09-25T03:30:53;12.70;99.90
20398;DHT22;10358;49.590;11.030;2022-09-25T03:33:19;12.70;99.90
20398;DHT22;10358;49.590;11.030;2022-09-25T03:35:44;12.70;99.90
20398;DHT22;10358;49.590;11.030;2022-09-25T03:38:10;12.60;99.90
20398;DHT22;10358;49.590;11.030;2022-09-25T03:40:36;12.70;99.90
20398;DHT22;10358;49.590;11.030;2022-09-25T03:43:02;12.70;99.90
20398;DHT22;10358;49.590;11.030;2022-09-25T03:45:27;12.70;99.90
20398;DHT22;10358;49.590;11.030;2022-09-25T03:47:53;12.70;99.90
20398;DHT22;10358;49.590;11.030;2022-09-25T03:50:19;12.70;99.90
20398;DHT22;10358;49.590;11.030;2022-09-25T03:52:44;12.70;99.90
20398;DHT22;10358;49.590;11.030;2022-09-25T03:55:10;12.70;99.90
20398;DHT22;10358;49.590;11.030;2022-09-25T03:57:36;12.70;99.90
20398;DHT22;10358;49.590;11.030;2022-09-25T04:00:03;12.70;99.90
20398;DHT22;10358;49.590;11.030;2022-09-25T04:02:29;12.70;99.90
20398;DHT22;10358;49.590;11.030;2022-09-25T04:04:55;12.70;99.90
20398;DHT22;10358;49.590;11.030;2022-09-25T04:07:21;12.70;99.90
20398;DHT22;10358;49.590;11.030;2022-09-25T04:09:46;12.70;99.90
20398;DHT22;10358;49.590;11.030;2022-09-25T04:12:12;12.70;99.90
20398;DHT22;10358;49.590;11.030;2022-09-25T04:14:38;12.70;99.90
20398;DHT22;10358;49.590;11.030;2022-09-25T04:17:03;12.70;99.90
20398;DHT22;10358;49.590;11.030;2022-09-25T04:19:29;12.70;99.90
20398;DHT22;10358;49.590;11.030;2022-09-25T04:21:55;12.70;99.90
20398;DHT22;10358;49.590;11.030;2022-09-25T04:24:20;12.70;99.90
20398;DHT22;10358;49.590;11.030;2022-09-25T04:27:05;12.70;99.90
20398;DHT22;10358;49.590;11.030;2022-09-25T04:29:30;12.70;99.90
20398;DHT22;10358;49.590;11.030;2022-09-25T04:31:56;12.70;99.90
20398;DHT22;10358;49.590;11.030;2022-09-25T04:34:40;12.70;99.90
20398;DHT22;10358;49.590;11.030;2022-09-25T04:37:06;12.70;99.90
20398;DHT22;10358;49.590;11.030;2022-09-25T04:39:31;12.60;99.90
20398;DHT22;10358;49.590;11.030;2022-09-25T04:41:57;12.60;99.90
20398;DHT22;10358;49.590;11.030;2022-09-25T04:44:22;12.60;99.90
20398;DHT22;10358;49.590;11.030;2022-09-25T04:46:48;12.60;99.90
20398;DHT22;10358;49.590;11.030;2022-09-25T04:49:13;12.60;99.90
20398;DHT22;10358;49.590;11.030;2022-09-25T04:51:39;12.60;99.90
20398;DHT22;10358;49.590;11.030;2022-09-25T04:54:04;12.60;99.90
20398;DHT22;10358;49.590;11.030;2022-09-25T04:56:30;12.60;99.90
20398;DHT22;10358;49.590;11.030;2022-09-25T04:58:55;12.60;99.90
20398;DHT22;10358;49.590;11.030;2022-09-25T05:01:21;12.60;99.90
20398;DHT22;10358;49.590;11.030;2022-09-25T05:03:50;12.60;99.90
20398;DHT22;10358;49.590;11.030;2022-09-25T05:06:18;12.60;99.90
20398;DHT22;10358;49.590;11.030;2022-09-25T05:08:46;12.60;99.90
20398;DHT22;10358;49.590;11.030;2022-09-25T05:11:12;12.60;99.90
20398;DHT22;10358;49.590;11.030;2022-09-25T05:13:38;12.60;99.90
20398;DHT22;10358;49.590;11.030;2022-09-25T05:16:03;12.50;99.90
20398;DHT22;10358;49.590;11.030;2022-09-25T05:18:29;12.50;99.90
20398;DHT22;10358;49.590;11.030;2022-09-25T05:20:54;12.40;99.90
20398;DHT22;10358;49.590;11.030;2022-09-25T05:23:21;12.50;99.90
20398;DHT22;10358;49.590;11.030;2022-09-25T05:25:55;12.40;99.90
20398;DHT22;10358;49.590;11.030;2022-09-25T05:28:22;12.40;99.90
20398;DHT22;10358;49.590;11.030;2022-09-25T05:30:49;12.40;99.90
20398;DHT22;10358;49.590;11.030;2022-09-25T05:33:15;12.40;99.90
20398;DHT22;10358;49.590;11.030;2022-09-25T05:35:40;12.40;99.90
20398;DHT22;10358;49.590;11.030;2022-09-25T05:38:06;12.50;99.90
20398;DHT22;10358;49.590;11.030;2022-09-25T05:40:33;12.40;99.90
20398;DHT22;10358;49.590;11.030;2022-09-25T05:42:58;12.40;99.90
20398;DHT22;10358;49.590;11.030;2022-09-25T05:45:24;12.50;99.90
20398;DHT22;10358;49.590;11.030;2022-09-25T05:48:03;12.50;99.90
20398;DHT22;10358;49.590;11.030;2022-09-25T05:50:30;12.50;99.90
20398;DHT22;10358;49.590;11.030;2022-09-25T05:53:00;12.50;99.90
20398;DHT22;10358;49.590;11.030;2022-09-25T05:55:26;12.60;99.90
20398;DHT22;10358;49.590;11.030;2022-09-25T05:57:52;12.60;99.90
20398;DHT22;10358;49.590;11.030;2022-09-25T06:00:18;12.60;99.90
20398;DHT22;10358;49.590;11.030;2022-09-25T06:02:44;12.60;99.90
20398;DHT22;10358;49.590;11.030;2022-09-25T06:05:09;12.60;99.90
20398;DHT22;10358;49.590;11.030;2022-09-25T06:07:35;12.60;99.90
20398;DHT22;10358;49.590;11.030;2022-09-25T06:10:01;12.60;99.90
20398;DHT22;10358;49.590;11.030;2022-09-25T06:12:30;12.70;99.90
20398;DHT22;10358;49.590;11.030;2022-09-25T06:14:56;12.70;99.90
20398;DHT22;10358;49.590;11.030;2022-09-25T06:17:22;12.70;99.90
20398;DHT22;10358;49.590;11.030;2022-09-25T06:19:48;12.70;99.90
20398;DHT22;10358;49.590;11.030;2022-09-25T06:22:13;12.80;99.90
20398;DHT22;10358;49.590;11.030;2022-09-25T06:24:39;12.80;99.90
20398;DHT22;10358;49.590;11.030;2022-09-25T06:27:05;12.80;99.90
20398;DHT22;10358;49.590;11.030;2022-09-25T06:29:31;12.90;99.90
20398;DHT22;10358;49.590;11.030;2022-09-25T06:31:57;12.90;99.90
20398;DHT22;10358;49.590;11.030;2022-09-25T06:34:22;13.00;99.90
20398;DHT22;10358;49.590;11.030;2022-09-25T06:36:48;12.90;99.90
20398;DHT22;10358;49.590;11.030;2022-09-25T06:39:13;13.00;99.90
20398;DHT22;10358;49.590;11.030;2022-09-25T06:41:39;13.00;99.90
20398;DHT22;10358;49.590;11.030;2022-09-25T06:44:05;13.00;99.90
20398;DHT22;10358;49.590;11.030;2022-09-25T06:46:34;13.00;99.90
20398;DHT22;10358;49.590;11.030;2022-09-25T06:48:59;13.10;99.90
20398;DHT22;10358;49.590;11.030;2022-09-25T06:51:25;13.10;99.90
20398;DHT22;10358;49.590;11.030;2022-09-25T06:53:56;13.20;99.90
20398;DHT22;10358;49.590;11.030;2022-09-25T06:56:23;13.20;99.90
20398;DHT22;10358;49.590;11.030;2022-09-25T06:58:49;13.20;99.90
20398;DHT22;10358;49.590;11.030;2022-09-25T07:01:14;13.20;99.90
20398;DHT22;10358;49.590;11.030;2022-09-25T07:03:40;13.20;99.90
20398;DHT22;10358;49.590;11.030;2022-09-25T07:06:10;13.20;99.90
20398;DHT22;10358;49.590;11.030;2022-09-25T07:08:36;13.20;99.90
20398;DHT22;10358;49.590;11.030;2022-09-25T07:11:02;13.30;99.90
20398;DHT22;10358;49.590;11.030;2022-09-25T07:13:30;13.30;99.90
20398;DHT22;10358;49.590;11.030;2022-09-25T07:16:01;13.40;99.90
20398;DHT22;10358;49.590;11.030;2022-09-25T07:18:28;13.40;99.90
20398;DHT22;10358;49.590;11.030;2022-09-25T07:21:03;13.50;99.90
20398;DHT22;10358;49.590;11.030;2022-09-25T07:23:29;13.60;99.90
20398;DHT22;10358;49.590;11.030;2022-09-25T07:26:01;13.60;99.90
20398;DHT22;10358;49.590;11.030;2022-09-25T07:28:28;13.70;99.90
20398;DHT22;10358;49.590;11.030;2022-09-25T07:30:53;13.80;99.90
20398;DHT22;10358;49.590;11.030;2022-09-25T07:33:19;13.90;99.90
20398;DHT22;10358;49.590;11.030;2022-09-25T07:35:47;13.90;99.90
20398;DHT22;10358;49.590;11.030;2022-09-25T07:38:12;14.00;99.90
20398;DHT22;10358;49.590;11.030;2022-09-25T07:40:38;14.10;99.90
20398;DHT22;10358;49.590;11.030;2022-09-25T07:43:04;14.10;99.90
20398;DHT22;10358;49.590;11.030;2022-09-25T07:45:30;14.00;99.90
20398;DHT22;10358;49.590;11.030;2022-09-25T07:48:00;14.00;99.90
20398;DHT22;10358;49.590;11.030;2022-09-25T07:50:30;14.00;99.90
20398;DHT22;10358;49.590;11.030;2022-09-25T07:52:56;14.00;99.90
20398;DHT22;10358;49.590;11.030;2022-09-25T07:55:22;14.00;99.90
20398;DHT22;10358;49.590;11.030;2022-09-25T07:57:48;14.00;99.90
20398;DHT22;10358;49.590;11.030;2022-09-25T08:00:15;14.10;99.90
20398;DHT22;10358;49.590;11.030;2022-09-25T08:02:41;14.20;99.90
20398;DHT22;10358;49.590;11.030;2022-09-25T08:05:08;14.30;99.90
20398;DHT22;10358;49.590;11.030;2022-09-25T08:07:33;14.40;99.90
20398;DHT22;10358;49.590;11.030;2022-09-25T08:09:59;14.50;99.90
20398;DHT22;10358;49.590;11.030;2022-09-25T08:12:24;14.60;99.90
20398;DHT22;10358;49.590;11.030;2022-09-25T08:14:51;14.70;99.90
20398;DHT22;10358;49.590;11.030;2022-09-25T08:17:17;14.80;99.90
20398;DHT22;10358;49.590;11.030;2022-09-25T08:19:44;14.90;99.90
20398;DHT22;10358;49.590;11.030;2022-09-25T08:22:09;15.00;99.90
20398;DHT22;10358;49.590;11.030;2022-09-25T08:24:35;15.20;99.90
20398;DHT22;10358;49.590;11.030;2022-09-25T08:27:02;15.30;99.90
20398;DHT22;10358;49.590;11.030;2022-09-25T08:29:28;15.40;99.90
20398;DHT22;10358;49.590;11.030;2022-09-25T08:31:54;15.50;99.90
20398;DHT22;10358;49.590;11.030;2022-09-25T08:34:19;15.70;99.90
20398;DHT22;10358;49.590;11.030;2022-09-25T08:36:50;15.70;99.90
20398;DHT22;10358;49.590;11.030;2022-09-25T08:39:16;15.80;99.90
20398;DHT22;10358;49.590;11.030;2022-09-25T08:41:50;15.80;99.90
20398;DHT22;10358;49.590;11.030;2022-09-25T08:46:59;15.90;99.90
20398;DHT22;10358;49.590;11.030;2022-09-25T08:52:34;16.10;99.90
20398;DHT22;10358;49.590;11.030;2022-09-25T08:55:00;16.20;99.90
20398;DHT22;10358;49.590;11.030;2022-09-25T08:57:37;16.30;99.90
20398;DHT22;10358;49.590;11.030;2022-09-25T09:00:16;16.50;99.90
20398;DHT22;10358;49.590;11.030;2022-09-25T09:02:50;16.50;99.90
20398;DHT22;10358;49.590;11.030;2022-09-25T09:05:32;16.50;99.90
20398;DHT22;10358;49.590;11.030;2022-09-25T09:08:06;16.50;99.90
20398;DHT22;10358;49.590;11.030;2022-09-25T09:10:53;16.30;99.90
20398;DHT22;10358;49.590;11.030;2022-09-25T09:13:42;16.20;99.90
20398;DHT22;10358;49.590;11.030;2022-09-25T09:16:20;16.10;99.90
20398;DHT22;10358;49.590;11.030;2022-09-25T09:18:48;16.00;99.90
20398;DHT22;10358;49.590;11.030;2022-09-25T09:21:31;15.90;99.90
20398;DHT22;10358;49.590;11.030;2022-09-25T09:29:39;15.80;99.90
20398;DHT22;10358;49.590;11.030;2022-09-25T09:32:36;15.70;99.90
20398;DHT22;10358;49.590;11.030;2022-09-25T09:43:45;15.70;99.90
20398;DHT22;10358;49.590;11.030;2022-09-25T09:46:36;16.00;99.90
20398;DHT22;10358;49.590;11.030;2022-09-25T09:51:57;16.40;99.90
20398;DHT22;10358;49.590;11.030;2022-09-25T09:54:51;16.60;99.90
20398;DHT22;10358;49.590;11.030;2022-09-25T09:57:31;16.70;99.90
20398;DHT22;10358;49.590;11.030;2022-09-25T10:00:05;16.80;99.90
20398;DHT22;10358;49.590;11.030;2022-09-25T10:05:23;16.80;99.90
20398;DHT22;10358;49.590;11.030;2022-09-25T10:07:50;16.90;99.90
20398;DHT22;10358;49.590;11.030;2022-09-25T10:10:17;16.90;99.90
20398;DHT22;10358;49.590;11.030;2022-09-25T10:12:45;17.10;99.90
20398;DHT22;10358;49.590;11.030;2022-09-25T10:15:28;17.30;99.90
20398;DHT22;10358;49.590;11.030;2022-09-25T10:17:58;17.40;99.90
20398;DHT22;10358;49.590;11.030;2022-09-25T10:20:32;17.50;99.90
20398;DHT22;10358;49.590;11.030;2022-09-25T10:23:03;17.60;99.90
20398;DHT22;10358;49.590;11.030;2022-09-25T10:25:39;17.70;99.90
20398;DHT22;10358;49.590;11.030;2022-09-25T10:28:26;17.80;99.90
20398;DHT22;10358;49.590;11.030;2022-09-25T10:30:52;17.90;99.90
20398;DHT22;10358;49.590;11.030;2022-09-25T10:33:21;18.00;99.90
20398;DHT22;10358;49.590;11.030;2022-09-25T10:35:48;18.20;99.90
20398;DHT22;10358;49.590;11.030;2022-09-25T10:38:32;18.40;99.90
20398;DHT22;10358;49.590;11.030;2022-09-25T10:41:13;18.60;99.90
20398;DHT22;10358;49.590;11.030;2022-09-25T10:43:54;18.70;99.90
20398;DHT22;10358;49.590;11.030;2022-09-25T10:46:31;18.80;99.90
20398;DHT22;10358;49.590;11.030;2022-09-25T10:49:24;18.60;99.90
20398;DHT22;10358;49.590;11.030;2022-09-25T10:52:14;18.50;99.90
20398;DHT22;10358;49.590;11.030;2022-09-25T10:54:40;18.40;99.90
20398;DHT22;10358;49.590;11.030;2022-09-25T10:57:28;18.40;99.90
20398;DHT22;10358;49.590;11.030;2022-09-25T10:59:58;18.40;99.90
20398;DHT22;10358;49.590;11.030;2022-09-25T11:02:40;18.40;99.90
20398;DHT22;10358;49.590;11.030;2022-09-25T11:05:15;18.50;99.90
20398;DHT22;10358;49.590;11.030;2022-09-25T11:07:51;18.50;99.90
20398;DHT22;10358;49.590;11.030;2022-09-25T11:10:28;18.40;99.90
20398;DHT22;10358;49.590;11.030;2022-09-25T11:12:55;18.30;99.90
20398;DHT22;10358;49.590;11.030;2022-09-25T11:15:24;18.10;99.90
20398;DHT22;10358;49.590;11.030;2022-09-25T11:17:53;17.90;99.90
20398;DHT22;10358;49.590;11.030;2022-09-25T11:20:28;17.70;99.90
20398;DHT22;10358;49.590;11.030;2022-09-25T11:23:20;17.20;99.90
20398;DHT22;10358;49.590;11.030;2022-09-25T11:26:09;16.40;99.90
20398;DHT22;10358;49.590;11.030;2022-09-25T11:28:50;15.70;99.90
20398;DHT22;10358;49.590;11.030;2022-09-25T11:31:28;15.20;99.90
20398;DHT22;10358;49.590;11.030;2022-09-25T11:34:13;14.00;99.90
20398;DHT22;10358;49.590;11.030;2022-09-25T11:36:58;12.70;99.90
20398;DHT22;10358;49.590;11.030;2022-09-25T11:39:41;12.10;99.90
20398;DHT22;10358;49.590;11.030;2022-09-25T11:42:45;11.70;99.90
20398;DHT22;10358;49.590;11.030;2022-09-25T11:45:23;11.60;99.90
20398;DHT22;10358;49.590;11.030;2022-09-25T11:48:02;11.50;99.90
20398;DHT22;10358;49.590;11.030;2022-09-25T11:50:44;11.60;99.90
20398;DHT22;10358;49.590;11.030;2022-09-25T12:01:23;12.10;99.90
20398;DHT22;10358;49.590;11.030;2022-09-25T12:06:54;12.40;99.90
20398;DHT22;10358;49.590;11.030;2022-09-25T12:12:18;12.50;99.90
20398;DHT22;10358;49.590;11.030;2022-09-25T12:18:27;12.50;99.90
20398;DHT22;10358;49.590;11.030;2022-09-25T12:21:03;12.60;99.90
20398;DHT22;10358;49.590;11.030;2022-09-25T12:23:42;12.70;99.90
20398;DHT22;10358;49.590;11.030;2022-09-25T12:26:18;12.80;99.90
20398;DHT22;10358;49.590;11.030;2022-09-25T12:29:28;12.90;99.90
20398;DHT22;10358;49.590;11.030;2022-09-25T12:34:41;13.00;99.90
20398;DHT22;10358;49.590;11.030;2022-09-25T12:39:50;13.20;99.90
20398;DHT22;10358;49.590;11.030;2022-09-25T12:42:38;13.10;99.90
20398;DHT22;10358;49.590;11.030;2022-09-25T12:51:26;13.30;99.90
20398;DHT22;10358;49.590;11.030;2022-09-25T12:53:59;13.20;99.90
20398;DHT22;10358;49.590;11.030;2022-09-25T12:57:08;13.10;99.90
20398;DHT22;10358;49.590;11.030;2022-09-25T12:59:43;13.00;99.90
20398;DHT22;10358;49.590;11.030;2022-09-25T13:05:05;13.00;99.90
20398;DHT22;10358;49.590;11.030;2022-09-25T13:07:41;12.90;99.90
20398;DHT22;10358;49.590;11.030;2022-09-25T13:10:28;13.00;99.90
20398;DHT22;10358;49.590;11.030;2022-09-25T13:12:58;13.00;99.90
20398;DHT22;10358;49.590;11.030;2022-09-25T13:15:29;13.00;99.90
20398;DHT22;10358;49.590;11.030;2022-09-25T13:17:56;13.10;99.90
20398;DHT22;10358;49.590;11.030;2022-09-25T13:25:28;13.20;99.90
20398;DHT22;10358;49.590;11.030;2022-09-25T13:27:56;13.30;99.90
20398;DHT22;10358;49.590;11.030;2022-09-25T13:30:29;13.30;99.90
20398;DHT22;10358;49.590;11.030;2022-09-25T13:32:57;13.30;99.90
20398;DHT22;10358;49.590;11.030;2022-09-25T13:35:25;13.40;99.90
20398;DHT22;10358;49.590;11.030;2022-09-25T13:37:54;13.40;99.90
20398;DHT22;10358;49.590;11.030;2022-09-25T13:40:21;13.40;99.90
20398;DHT22;10358;49.590;11.030;2022-09-25T13:43:20;13.40;99.90
20398;DHT22;10358;49.590;11.030;2022-09-25T13:48:46;13.50;99.90
20398;DHT22;10358;49.590;11.030;2022-09-25T13:54:02;13.70;99.90
20398;DHT22;10358;49.590;11.030;2022-09-25T14:01:47;13.70;99.90
20398;DHT22;10358;49.590;11.030;2022-09-25T14:06:39;13.80;99.90
20398;DHT22;10358;49.590;11.030;2022-09-25T14:09:23;13.80;99.90
20398;DHT22;10358;49.590;11.030;2022-09-25T14:12:51;13.80;99.90
20398;DHT22;10358;49.590;11.030;2022-09-25T14:15:02;13.90;99.90
20398;DHT22;10358;49.590;11.030;2022-09-25T14:17:31;14.00;99.90
20398;DHT22;10358;49.590;11.030;2022-09-25T14:19:58;14.10;99.90
20398;DHT22;10358;49.590;11.030;2022-09-25T14:22:37;14.00;99.90
20398;DHT22;10358;49.590;11.030;2022-09-25T14:25:33;14.10;99.90
20398;DHT22;10358;49.590;11.030;2022-09-25T14:28:12;14.20;99.90
20398;DHT22;10358;49.590;11.030;2022-09-25T14:30:39;14.30;99.90
20398;DHT22;10358;49.590;11.030;2022-09-25T14:33:22;14.30;99.90
20398;DHT22;10358;49.590;11.030;2022-09-25T14:36:00;14.30;99.90
20398;DHT22;10358;49.590;11.030;2022-09-25T14:47:32;14.30;99.90
20398;DHT22;10358;49.590;11.030;2022-09-25T14:49:59;14.20;99.90
20398;DHT22;10358;49.590;11.030;2022-09-25T14:52:27;14.10;99.90
20398;DHT22;10358;49.590;11.030;2022-09-25T14:54:55;14.00;99.90
20398;DHT22;10358;49.590;11.030;2022-09-25T14:57:27;14.00;99.90
20398;DHT22;10358;49.590;11.030;2022-09-25T15:00:01;13.90;99.90
20398;DHT22;10358;49.590;11.030;2022-09-25T15:05:05;13.80;99.90
20398;DHT22;10358;49.590;11.030;2022-09-25T15:07:41;13.90;99.90
20398;DHT22;10358;49.590;11.030;2022-09-25T15:12:52;13.80;99.90
20398;DHT22;10358;49.590;11.030;2022-09-25T15:15:17;13.80;99.90
20398;DHT22;10358;49.590;11.030;2022-09-25T15:17:49;13.90;99.90
20398;DHT22;10358;49.590;11.030;2022-09-25T15:20:27;14.00;99.90
20398;DHT22;10358;49.590;11.030;2022-09-25T15:23:07;14.00;99.90
20398;DHT22;10358;49.590;11.030;2022-09-25T15:25:41;14.00;99.90
20398;DHT22;10358;49.590;11.030;2022-09-25T15:28:12;14.00;99.90
20398;DHT22;10358;49.590;11.030;2022-09-25T15:30:39;14.00;99.90
20398;DHT22;10358;49.590;11.030;2022-09-25T15:33:25;14.00;99.90
20398;DHT22;10358;49.590;11.030;2022-09-25T15:38:31;14.00;99.90
20398;DHT22;10358;49.590;11.030;2022-09-25T15:40:57;14.00;99.90
20398;DHT22;10358;49.590;11.030;2022-09-25T15:43:23;14.00;99.90
20398;DHT22;10358;49.590;11.030;2022-09-25T15:48:29;13.90;99.90
20398;DHT22;10358;49.590;11.030;2022-09-25T15:51:00;13.80;99.90
20398;DHT22;10358;49.590;11.030;2022-09-25T15:53:34;13.80;99.90
20398;DHT22;10358;49.590;11.030;2022-09-25T15:56:10;13.90;99.90
20398;DHT22;10358;49.590;11.030;2022-09-25T15:58:50;13.90;99.90
20398;DHT22;10358;49.590;11.030;2022-09-25T16:01:20;13.90;99.90
20398;DHT22;10358;49.590;11.030;2022-09-25T16:04:08;13.90;99.90
20398;DHT22;10358;49.590;11.030;2022-09-25T16:06:53;13.90;99.90
20398;DHT22;10358;49.590;11.030;2022-09-25T16:09:32;13.90;99.90
20398;DHT22;10358;49.590;11.030;2022-09-25T16:12:21;13.90;99.90
20398;DHT22;10358;49.590;11.030;2022-09-25T16:14:49;13.90;99.90
20398;DHT22;10358;49.590;11.030;2022-09-25T16:17:19;13.90;99.90
20398;DHT22;10358;49.590;11.030;2022-09-25T16:20:01;13.80;99.90
20398;DHT22;10358;49.590;11.030;2022-09-25T16:22:34;13.80;99.90
20398;DHT22;10358;49.590;11.030;2022-09-25T16:25:00;13.70;99.90
20398;DHT22;10358;49.590;11.030;2022-09-25T16:27:30;13.70;99.90
20398;DHT22;10358;49.590;11.030;2022-09-25T16:29:57;13.70;99.90
20398;DHT22;10358;49.590;11.030;2022-09-25T16:32:23;13.70;99.90
20398;DHT22;10358;49.590;11.030;2022-09-25T16:34:58;13.70;99.90
20398;DHT22;10358;49.590;11.030;2022-09-25T16:37:31;13.70;99.90
20398;DHT22;10358;49.590;11.030;2022-09-25T16:40:08;13.70;99.90
20398;DHT22;10358;49.590;11.030;2022-09-25T16:42:37;13.60;99.90
20398;DHT22;10358;49.590;11.030;2022-09-25T16:45:19;13.60;99.90
20398;DHT22;10358;49.590;11.030;2022-09-25T16:47:47;13.60;99.90
20398;DHT22;10358;49.590;11.030;2022-09-25T16:50:13;13.50;99.90
20398;DHT22;10358;49.590;11.030;2022-09-25T16:52:39;13.50;99.90
20398;DHT22;10358;49.590;11.030;2022-09-25T16:55:15;13.50;99.90
20398;DHT22;10358;49.590;11.030;2022-09-25T16:57:40;13.50;99.90
20398;DHT22;10358;49.590;11.030;2022-09-25T17:00:12;13.60;99.90
20398;DHT22;10358;49.590;11.030;2022-09-25T17:02:41;13.50;99.90
20398;DHT22;10358;49.590;11.030;2022-09-25T17:05:12;13.50;99.90
20398;DHT22;10358;49.590;11.030;2022-09-25T17:07:45;13.50;99.90
20398;DHT22;10358;49.590;11.030;2022-09-25T17:10:13;13.50;99.90
20398;DHT22;10358;49.590;11.030;2022-09-25T17:12:42;13.40;99.90
20398;DHT22;10358;49.590;11.030;2022-09-25T17:15:37;13.40;99.90
20398;DHT22;10358;49.590;11.030;2022-09-25T17:18:17;13.40;99.90
20398;DHT22;10358;49.590;11.030;2022-09-25T17:20:44;13.40;99.90
20398;DHT22;10358;49.590;11.030;2022-09-25T17:23:10;13.30;99.90
20398;DHT22;10358;49.590;11.030;2022-09-25T17:28:09;13.30;99.90
20398;DHT22;10358;49.590;11.030;2022-09-25T17:30:36;13.20;99.90
20398;DHT22;10358;49.590;11.030;2022-09-25T17:33:03;13.20;99.90
20398;DHT22;10358;49.590;11.030;2022-09-25T17:38:12;13.20;99.90
20398;DHT22;10358;49.590;11.030;2022-09-25T17:40:41;13.30;99.90
20398;DHT22;10358;49.590;11.030;2022-09-25T17:43:09;13.20;99.90
20398;DHT22;10358;49.590;11.030;2022-09-25T17:48:19;13.30;99.90
20398;DHT22;10358;49.590;11.030;2022-09-25T17:50:59;13.30;99.90